sensor_id;sensor_type;location;lat;lon;timestamp;pressure;altitude;pressure_sealevel;temperature;humidity
54854;BME280;40747;49.480;8.658;2023-07-29T00:01:55;99763.03;;;19.67;100.00
54854;BME280;40747;49.480;8.658;2023-07-29T00:04:21;99766.09;;;19.73;100.00
54854;BME280;40747;49.480;8.658;2023-07-29T00:06:46;99763.78;;;19.80;100.00
54854;BME280;40747;49.480;8.658;2023-07-29T00:09:11;99759.75;;;19.74;100.00
54854;BME280;40747;49.480;8.658;2023-07-29T00:11:37;99757.69;;;19.78;100.00
54854;BME280;40747;49.480;8.658;2023-07-29T00:14:03;99749.56;;;19.68;100.00
54854;BME280;40747;49.480;8.658;2023-07-29T00:16:28;99759.03;;;19.72;100.00
54854;BME280;40747;49.480;8.658;2023-07-29T00:18:53;99748.97;;;19.64;100.00
54854;BME280;40747;49.480;8.658;2023-07-29T00:21:19;99751.75;;;19.63;100.00
54854;BME280;40747;49.480;8.658;2023-07-29T00:23:45;99745.56;;;19.74;100.00
54854;BME280;40747;49.480;8.658;2023-07-29T00:26:10;99744.97;;;19.81;100.00
54854;BME280;40747;49.480;8.658;2023-07-29T00:28:35;99748.03;;;19.88;100.00
54854;BME280;40747;49.480;8.658;2023-07-29T00:31:01;99736.00;;;19.83;100.00
54854;BME280;40747;49.480;8.658;2023-07-29T00:33:27;99747.00;;;19.67;100.00
54854;BME280;40747;49.480;8.658;2023-07-29T00:35:52;99738.88;;;19.57;100.00
54854;BME280;40747;49.480;8.658;2023-07-29T00:38:18;99728.66;;;19.51;100.00
54854;BME280;40747;49.480;8.658;2023-07-29T00:40:43;99724.28;;;19.49;100.00
54854;BME280;40747;49.480;8.658;2023-07-29T00:43:08;99723.94;;;19.54;100.00
54854;BME280;40747;49.480;8.658;2023-07-29T00:45:34;99722.00;;;19.68;100.00
54854;BME280;40747;49.480;8.658;2023-07-29T00:48:00;99715.19;;;19.63;100.00
54854;BME280;40747;49.480;8.658;2023-07-29T00:50:26;99715.81;;;19.67;100.00
54854;BME280;40747;49.480;8.658;2023-07-29T00:52:54;99706.09;;;19.66;100.00
54854;BME280;40747;49.480;8.658;2023-07-29T00:55:19;99701.84;;;19.63;100.00
54854;BME280;40747;49.480;8.658;2023-07-29T00:57:45;99704.25;;;19.67;100.00
54854;BME280;40747;49.480;8.658;2023-07-29T01:00:14;99696.84;;;19.59;100.00
54854;BME280;40747;49.480;8.658;2023-07-29T01:02:39;99707.44;;;19.60;100.00
54854;BME280;40747;49.480;8.658;2023-07-29T01:05:04;99699.91;;;19.65;100.00
54854;BME280;40747;49.480;8.658;2023-07-29T01:12:58;99704.88;;;19.70;100.00
54854;BME280;40747;49.480;8.658;2023-07-29T01:15:56;99710.94;;;19.61;100.00
54854;BME280;40747;49.480;8.658;2023-07-29T01:18:35;99703.66;;;19.63;100.00
54854;BME280;40747;49.480;8.658;2023-07-29T01:21:07;99693.47;;;19.68;100.00
54854;BME280;40747;49.480;8.658;2023-07-29T01:23:36;99701.34;;;19.70;100.00
54854;BME280;40747;49.480;8.658;2023-07-29T01:26:02;99693.56;;;19.67;100.00
54854;BME280;40747;49.480;8.658;2023-07-29T01:28:28;99705.47;;;19.74;100.00
54854;BME280;40747;49.480;8.658;2023-07-29T01:31:16;99698.31;;;19.63;100.00
54854;BME280;40747;49.480;8.658;2023-07-29T01:33:51;99693.22;;;19.71;100.00
54854;BME280;40747;49.480;8.658;2023-07-29T01:36:21;99685.47;;;19.68;100.00
54854;BME280;40747;49.480;8.658;2023-07-29T01:38:48;99685.66;;;19.54;100.00
54854;BME280;40747;49.480;8.658;2023-07-29T01:41:16;99691.63;;;19.57;100.00
54854;BME280;40747;49.480;8.658;2023-07-29T01:43:42;99692.97;;;19.63;100.00
54854;BME280;40747;49.480;8.658;2023-07-29T01:46:10;99682.41;;;19.73;100.00
54854;BME280;40747;49.480;8.658;2023-07-29T01:48:36;99689.72;;;19.71;100.00
54854;BME280;40747;49.480;8.658;2023-07-29T01:51:02;99691.50;;;19.70;100.00
54854;BME280;40747;49.480;8.658;2023-07-29T01:53:27;99683.38;;;19.72;100.00
54854;BME280;40747;49.480;8.658;2023-07-29T01:55:52;99676.94;;;19.74;100.00
54854;BME280;40747;49.480;8.658;2023-07-29T01:58:17;99684.72;;;19.77;100.00
54854;BME280;40747;49.480;8.658;2023-07-29T02:00:43;99681.44;;;19.74;100.00
54854;BME280;40747;49.480;8.658;2023-07-29T02:03:08;99678.63;;;19.75;100.00
54854;BME280;40747;49.480;8.658;2023-07-29T02:05:33;99677.94;;;19.73;100.00
54854;BME280;40747;49.480;8.658;2023-07-29T02:07:59;99670.13;;;19.70;100.00
54854;BME280;40747;49.480;8.658;2023-07-29T02:10:24;99674.28;;;19.63;100.00
54854;BME280;40747;49.480;8.658;2023-07-29T02:12:49;99683.00;;;19.54;100.00
54854;BME280;40747;49.480;8.658;2023-07-29T02:15:15;99678.03;;;19.49;100.00
54854;BME280;40747;49.480;8.658;2023-07-29T02:17:41;99667.72;;;19.56;100.00
54854;BME280;40747;49.480;8.658;2023-07-29T02:20:07;99672.78;;;19.47;100.00
54854;BME280;40747;49.480;8.658;2023-07-29T02:22:36;99667.22;;;19.51;100.00
54854;BME280;40747;49.480;8.658;2023-07-29T02:25:01;99664.53;;;19.39;100.00
54854;BME280;40747;49.480;8.658;2023-07-29T02:27:27;99671.59;;;19.40;100.00
54854;BME280;40747;49.480;8.658;2023-07-29T02:29:53;99675.22;;;19.28;100.00
54854;BME280;40747;49.480;8.658;2023-07-29T02:32:19;99674.47;;;19.26;100.00
54854;BME280;40747;49.480;8.658;2023-07-29T02:34:44;99673.47;;;19.15;100.00
54854;BME280;40747;49.480;8.658;2023-07-29T02:37:10;99676.63;;;19.21;100.00
54854;BME280;40747;49.480;8.658;2023-07-29T02:39:35;99679.06;;;19.12;100.00
54854;BME280;40747;49.480;8.658;2023-07-29T02:42:00;99666.06;;;19.08;100.00
54854;BME280;40747;49.480;8.658;2023-07-29T02:44:25;99673.47;;;19.15;100.00
54854;BME280;40747;49.480;8.658;2023-07-29T02:46:51;99671.88;;;19.13;100.00
54854;BME280;40747;49.480;8.658;2023-07-29T02:49:17;99676.84;;;19.06;100.00
54854;BME280;40747;49.480;8.658;2023-07-29T02:51:42;99683.44;;;19.13;100.00
54854;BME280;40747;49.480;8.658;2023-07-29T02:54:08;99674.81;;;19.10;100.00
54854;BME280;40747;49.480;8.658;2023-07-29T02:56:33;99671.41;;;19.08;100.00
54854;BME280;40747;49.480;8.658;2023-07-29T02:58:58;99673.56;;;19.03;100.00
54854;BME280;40747;49.480;8.658;2023-07-29T03:01:24;99669.56;;;18.97;100.00
54854;BME280;40747;49.480;8.658;2023-07-29T03:03:50;99662.44;;;18.84;100.00
54854;BME280;40747;49.480;8.658;2023-07-29T03:06:15;99660.19;;;18.91;100.00
54854;BME280;40747;49.480;8.658;2023-07-29T03:08:41;99657.22;;;19.07;100.00
54854;BME280;40747;49.480;8.658;2023-07-29T03:11:08;99659.88;;;19.07;100.00
54854;BME280;40747;49.480;8.658;2023-07-29T03:13:34;99657.72;;;19.12;100.00
54854;BME280;40747;49.480;8.658;2023-07-29T03:16:09;99647.41;;;19.19;100.00
54854;BME280;40747;49.480;8.658;2023-07-29T03:18:35;99648.97;;;19.10;100.00
54854;BME280;40747;49.480;8.658;2023-07-29T03:21:01;99637.91;;;19.04;100.00
54854;BME280;40747;49.480;8.658;2023-07-29T03:23:30;99644.63;;;19.09;100.00
54854;BME280;40747;49.480;8.658;2023-07-29T03:25:57;99639.78;;;19.14;100.00
54854;BME280;40747;49.480;8.658;2023-07-29T03:28:28;99643.53;;;19.12;100.00
54854;BME280;40747;49.480;8.658;2023-07-29T03:30:54;99639.03;;;19.12;100.00
54854;BME280;40747;49.480;8.658;2023-07-29T03:33:20;99636.09;;;19.15;100.00
54854;BME280;40747;49.480;8.658;2023-07-29T03:35:45;99629.41;;;18.98;100.00
54854;BME280;40747;49.480;8.658;2023-07-29T03:38:11;99636.56;;;18.98;100.00
54854;BME280;40747;49.480;8.658;2023-07-29T03:40:37;99634.41;;;19.03;100.00
54854;BME280;40747;49.480;8.658;2023-07-29T03:43:02;99630.88;;;19.03;100.00
54854;BME280;40747;49.480;8.658;2023-07-29T03:45:28;99618.25;;;19.05;100.00
54854;BME280;40747;49.480;8.658;2023-07-29T03:47:53;99618.41;;;19.14;100.00
54854;BME280;40747;49.480;8.658;2023-07-29T03:50:18;99604.78;;;19.06;100.00
54854;BME280;40747;49.480;8.658;2023-07-29T03:52:44;99592.06;;;19.10;100.00
54854;BME280;40747;49.480;8.658;2023-07-29T03:55:09;99587.94;;;19.06;100.00
54854;BME280;40747;49.480;8.658;2023-07-29T03:57:35;99599.22;;;18.98;100.00
54854;BME280;40747;49.480;8.658;2023-07-29T04:00:00;99614.72;;;18.93;100.00
54854;BME280;40747;49.480;8.658;2023-07-29T04:02:25;99618.81;;;18.86;100.00
54854;BME280;40747;49.480;8.658;2023-07-29T04:04:51;99612.63;;;18.85;100.00
54854;BME280;40747;49.480;8.658;2023-07-29T04:07:17;99618.56;;;18.89;100.00
54854;BME280;40747;49.480;8.658;2023-07-29T04:09:42;99615.88;;;18.89;100.00
54854;BME280;40747;49.480;8.658;2023-07-29T04:12:08;99611.47;;;19.01;100.00
54854;BME280;40747;49.480;8.658;2023-07-29T04:14:34;99609.03;;;19.09;100.00
54854;BME280;40747;49.480;8.658;2023-07-29T04:16:59;99619.84;;;19.07;100.00
54854;BME280;40747;49.480;8.658;2023-07-29T04:19:24;99621.44;;;19.10;100.00
54854;BME280;40747;49.480;8.658;2023-07-29T04:21:50;99614.16;;;19.12;100.00
54854;BME280;40747;49.480;8.658;2023-07-29T04:24:16;99621.66;;;19.18;100.00
54854;BME280;40747;49.480;8.658;2023-07-29T04:26:41;99633.34;;;19.17;100.00
54854;BME280;40747;49.480;8.658;2023-07-29T04:29:06;99623.63;;;19.16;100.00
54854;BME280;40747;49.480;8.658;2023-07-29T04:31:31;99609.66;;;19.12;100.00
54854;BME280;40747;49.480;8.658;2023-07-29T04:33:57;99630.66;;;19.17;100.00
54854;BME280;40747;49.480;8.658;2023-07-29T04:36:22;99632.25;;;19.20;100.00
54854;BME280;40747;49.480;8.658;2023-07-29T04:38:47;99632.00;;;19.23;100.00
54854;BME280;40747;49.480;8.658;2023-07-29T04:41:12;99638.78;;;19.15;100.00
54854;BME280;40747;49.480;8.658;2023-07-29T04:43:38;99637.44;;;19.10;100.00
54854;BME280;40747;49.480;8.658;2023-07-29T04:46:06;99633.94;;;19.09;100.00
54854;BME280;40747;49.480;8.658;2023-07-29T04:48:32;99629.81;;;19.16;100.00
54854;BME280;40747;49.480;8.658;2023-07-29T04:50:57;99648.25;;;19.20;100.00
54854;BME280;40747;49.480;8.658;2023-07-29T04:53:23;99671.06;;;19.12;100.00
54854;BME280;40747;49.480;8.658;2023-07-29T04:55:48;99658.88;;;18.97;100.00
54854;BME280;40747;49.480;8.658;2023-07-29T04:58:13;99651.97;;;18.94;100.00
54854;BME280;40747;49.480;8.658;2023-07-29T05:00:38;99646.63;;;18.94;100.00
54854;BME280;40747;49.480;8.658;2023-07-29T05:03:04;99655.47;;;18.95;100.00
54854;BME280;40747;49.480;8.658;2023-07-29T05:05:29;99653.56;;;18.97;100.00
54854;BME280;40747;49.480;8.658;2023-07-29T05:07:54;99657.44;;;18.93;100.00
54854;BME280;40747;49.480;8.658;2023-07-29T05:10:19;99669.19;;;18.90;100.00
54854;BME280;40747;49.480;8.658;2023-07-29T05:12:45;99657.69;;;18.77;100.00
54854;BME280;40747;49.480;8.658;2023-07-29T05:15:10;99646.66;;;18.70;100.00
54854;BME280;40747;49.480;8.658;2023-07-29T05:17:36;99646.66;;;18.70;100.00
54854;BME280;40747;49.480;8.658;2023-07-29T05:20:01;99639.97;;;18.76;100.00
54854;BME280;40747;49.480;8.658;2023-07-29T05:22:26;99638.78;;;18.69;100.00
54854;BME280;40747;49.480;8.658;2023-07-29T05:24:52;99631.84;;;18.66;100.00
54854;BME280;40747;49.480;8.658;2023-07-29T05:27:17;99626.00;;;18.61;100.00
54854;BME280;40747;49.480;8.658;2023-07-29T05:29:42;99640.13;;;18.50;100.00
54854;BME280;40747;49.480;8.658;2023-07-29T05:32:08;99652.91;;;18.58;100.00
54854;BME280;40747;49.480;8.658;2023-07-29T05:34:33;99663.56;;;18.58;100.00
54854;BME280;40747;49.480;8.658;2023-07-29T05:36:58;99672.94;;;18.63;100.00
54854;BME280;40747;49.480;8.658;2023-07-29T05:39:23;99683.94;;;18.59;100.00
54854;BME280;40747;49.480;8.658;2023-07-29T05:41:49;99681.50;;;18.56;100.00
54854;BME280;40747;49.480;8.658;2023-07-29T05:44:14;99677.31;;;18.64;100.00
54854;BME280;40747;49.480;8.658;2023-07-29T05:46:40;99639.44;;;18.59;100.00
54854;BME280;40747;49.480;8.658;2023-07-29T05:49:05;99659.94;;;18.59;100.00
54854;BME280;40747;49.480;8.658;2023-07-29T05:51:30;99669.19;;;18.66;100.00
54854;BME280;40747;49.480;8.658;2023-07-29T05:53:56;99668.22;;;18.67;100.00
54854;BME280;40747;49.480;8.658;2023-07-29T05:56:21;99671.16;;;18.75;100.00
54854;BME280;40747;49.480;8.658;2023-07-29T05:58:46;99672.41;;;18.82;100.00
54854;BME280;40747;49.480;8.658;2023-07-29T06:01:11;99674.31;;;18.80;100.00
54854;BME280;40747;49.480;8.658;2023-07-29T06:03:37;99671.00;;;18.90;100.00
54854;BME280;40747;49.480;8.658;2023-07-29T06:06:02;99673.06;;;18.97;100.00
54854;BME280;40747;49.480;8.658;2023-07-29T06:08:27;99676.94;;;18.93;100.00
54854;BME280;40747;49.480;8.658;2023-07-29T06:10:58;99677.06;;;18.92;100.00
54854;BME280;40747;49.480;8.658;2023-07-29T06:13:23;99667.38;;;19.02;100.00
54854;BME280;40747;49.480;8.658;2023-07-29T06:15:48;99660.59;;;18.98;100.00
54854;BME280;40747;49.480;8.658;2023-07-29T06:18:13;99653.72;;;19.07;100.00
54854;BME280;40747;49.480;8.658;2023-07-29T06:20:39;99653.59;;;19.20;100.00
54854;BME280;40747;49.480;8.658;2023-07-29T06:23:04;99654.59;;;19.30;100.00
54854;BME280;40747;49.480;8.658;2023-07-29T06:25:29;99653.03;;;19.39;100.00
54854;BME280;40747;49.480;8.658;2023-07-29T06:27:54;99657.75;;;19.46;100.00
54854;BME280;40747;49.480;8.658;2023-07-29T06:30:20;99651.66;;;19.33;100.00
54854;BME280;40747;49.480;8.658;2023-07-29T06:32:45;99658.22;;;19.29;100.00
54854;BME280;40747;49.480;8.658;2023-07-29T06:35:10;99651.06;;;19.41;100.00
54854;BME280;40747;49.480;8.658;2023-07-29T06:37:35;99660.16;;;19.38;100.00
54854;BME280;40747;49.480;8.658;2023-07-29T06:40:01;99666.25;;;19.40;100.00
54854;BME280;40747;49.480;8.658;2023-07-29T06:42:26;99672.22;;;19.44;100.00
54854;BME280;40747;49.480;8.658;2023-07-29T06:44:51;99667.44;;;19.47;100.00
54854;BME280;40747;49.480;8.658;2023-07-29T06:47:17;99664.44;;;19.52;100.00
54854;BME280;40747;49.480;8.658;2023-07-29T06:49:42;99676.56;;;19.45;100.00
54854;BME280;40747;49.480;8.658;2023-07-29T06:52:07;99675.47;;;19.36;100.00
54854;BME280;40747;49.480;8.658;2023-07-29T06:54:32;99680.69;;;19.38;100.00
54854;BME280;40747;49.480;8.658;2023-07-29T06:56:58;99676.19;;;19.38;100.00
54854;BME280;40747;49.480;8.658;2023-07-29T06:59:23;99671.22;;;19.56;100.00
54854;BME280;40747;49.480;8.658;2023-07-29T07:01:50;99676.56;;;19.68;100.00
54854;BME280;40747;49.480;8.658;2023-07-29T07:04:15;99668.44;;;19.69;100.00
54854;BME280;40747;49.480;8.658;2023-07-29T07:06:40;99672.97;;;19.91;100.00
54854;BME280;40747;49.480;8.658;2023-07-29T07:09:05;99676.59;;;19.90;100.00
54854;BME280;40747;49.480;8.658;2023-07-29T07:11:31;99669.75;;;20.09;100.00
54854;BME280;40747;49.480;8.658;2023-07-29T07:13:56;99689.34;;;20.09;100.00
54854;BME280;40747;49.480;8.658;2023-07-29T07:16:21;99692.72;;;20.11;100.00
54854;BME280;40747;49.480;8.658;2023-07-29T07:18:47;99689.94;;;20.13;100.00
54854;BME280;40747;49.480;8.658;2023-07-29T07:21:12;99684.06;;;20.19;100.00
54854;BME280;40747;49.480;8.658;2023-07-29T07:23:39;99684.03;;;20.42;100.00
54854;BME280;40747;49.480;8.658;2023-07-29T07:26:04;99690.59;;;20.49;100.00
54854;BME280;40747;49.480;8.658;2023-07-29T07:28:29;99679.94;;;20.70;100.00
54854;BME280;40747;49.480;8.658;2023-07-29T07:30:56;99691.97;;;20.76;100.00
54854;BME280;40747;49.480;8.658;2023-07-29T07:33:22;99682.69;;;20.80;100.00
54854;BME280;40747;49.480;8.658;2023-07-29T07:35:47;99679.84;;;20.93;100.00
54854;BME280;40747;49.480;8.658;2023-07-29T07:38:12;99684.50;;;21.33;100.00
54854;BME280;40747;49.480;8.658;2023-07-29T07:40:37;99679.06;;;21.44;100.00
54854;BME280;40747;49.480;8.658;2023-07-29T07:43:03;99680.19;;;21.52;100.00
54854;BME280;40747;49.480;8.658;2023-07-29T07:45:28;99688.91;;;21.44;100.00
54854;BME280;40747;49.480;8.658;2023-07-29T07:47:53;99684.28;;;21.46;100.00
54854;BME280;40747;49.480;8.658;2023-07-29T07:50:19;99685.19;;;21.56;100.00
54854;BME280;40747;49.480;8.658;2023-07-29T07:52:44;99696.66;;;21.68;100.00
54854;BME280;40747;49.480;8.658;2023-07-29T07:55:13;99687.91;;;21.66;100.00
54854;BME280;40747;49.480;8.658;2023-07-29T07:57:38;99685.97;;;21.47;100.00
54854;BME280;40747;49.480;8.658;2023-07-29T08:00:04;99684.91;;;21.59;100.00
54854;BME280;40747;49.480;8.658;2023-07-29T08:02:29;99680.41;;;21.91;100.00
54854;BME280;40747;49.480;8.658;2023-07-29T08:04:55;99682.34;;;21.89;100.00
54854;BME280;40747;49.480;8.658;2023-07-29T08:07:20;99678.63;;;22.11;100.00
54854;BME280;40747;49.480;8.658;2023-07-29T08:09:45;99681.88;;;22.15;100.00
54854;BME280;40747;49.480;8.658;2023-07-29T08:12:11;99699.19;;;22.01;100.00
54854;BME280;40747;49.480;8.658;2023-07-29T08:14:36;99691.81;;;21.93;100.00
54854;BME280;40747;49.480;8.658;2023-07-29T08:17:01;99694.06;;;21.88;100.00
54854;BME280;40747;49.480;8.658;2023-07-29T08:19:27;99681.66;;;21.87;100.00
54854;BME280;40747;49.480;8.658;2023-07-29T08:21:52;99682.22;;;21.81;100.00
54854;BME280;40747;49.480;8.658;2023-07-29T08:24:17;99673.75;;;21.85;100.00
54854;BME280;40747;49.480;8.658;2023-07-29T08:26:43;99665.59;;;21.97;100.00
54854;BME280;40747;49.480;8.658;2023-07-29T08:29:08;99668.72;;;22.02;100.00
54854;BME280;40747;49.480;8.658;2023-07-29T08:31:34;99671.56;;;21.69;100.00
54854;BME280;40747;49.480;8.658;2023-07-29T08:34:00;99674.69;;;21.53;100.00
54854;BME280;40747;49.480;8.658;2023-07-29T08:36:26;99657.31;;;21.69;100.00
54854;BME280;40747;49.480;8.658;2023-07-29T08:38:51;99655.75;;;21.66;100.00
54854;BME280;40747;49.480;8.658;2023-07-29T08:41:25;99697.66;;;21.46;100.00
54854;BME280;40747;49.480;8.658;2023-07-29T08:43:58;99696.94;;;21.44;100.00
54854;BME280;40747;49.480;8.658;2023-07-29T08:46:25;99710.78;;;21.49;100.00
54854;BME280;40747;49.480;8.658;2023-07-29T08:48:51;99701.88;;;21.60;100.00
54854;BME280;40747;49.480;8.658;2023-07-29T08:51:17;99708.84;;;21.51;100.00
54854;BME280;40747;49.480;8.658;2023-07-29T08:53:42;99694.66;;;21.39;100.00
54854;BME280;40747;49.480;8.658;2023-07-29T08:56:08;99700.50;;;21.44;100.00
54854;BME280;40747;49.480;8.658;2023-07-29T08:58:35;99705.03;;;21.54;100.00
54854;BME280;40747;49.480;8.658;2023-07-29T09:01:00;99715.81;;;21.64;100.00
54854;BME280;40747;49.480;8.658;2023-07-29T09:03:26;99719.53;;;21.72;100.00
54854;BME280;40747;49.480;8.658;2023-07-29T09:05:52;99722.56;;;21.89;100.00
54854;BME280;40747;49.480;8.658;2023-07-29T09:08:19;99718.38;;;22.47;100.00
54854;BME280;40747;49.480;8.658;2023-07-29T09:10:44;99734.13;;;22.61;100.00
54854;BME280;40747;49.480;8.658;2023-07-29T09:13:09;99724.22;;;22.62;100.00
54854;BME280;40747;49.480;8.658;2023-07-29T09:15:36;99723.94;;;22.74;100.00
54854;BME280;40747;49.480;8.658;2023-07-29T09:18:14;99713.50;;;23.30;100.00
54854;BME280;40747;49.480;8.658;2023-07-29T09:20:40;99711.38;;;23.34;100.00
54854;BME280;40747;49.480;8.658;2023-07-29T09:23:08;99703.56;;;23.40;100.00
54854;BME280;40747;49.480;8.658;2023-07-29T09:25:34;99716.66;;;23.63;100.00
54854;BME280;40747;49.480;8.658;2023-07-29T09:28:00;99708.34;;;23.94;100.00
54854;BME280;40747;49.480;8.658;2023-07-29T09:30:27;99713.22;;;24.09;100.00
54854;BME280;40747;49.480;8.658;2023-07-29T09:32:55;99703.00;;;24.40;100.00
54854;BME280;40747;49.480;8.658;2023-07-29T09:35:21;99697.09;;;24.91;99.85
54854;BME280;40747;49.480;8.658;2023-07-29T09:37:46;99683.06;;;25.05;96.17
54854;BME280;40747;49.480;8.658;2023-07-29T09:40:14;99683.34;;;25.38;96.64
54854;BME280;40747;49.480;8.658;2023-07-29T09:42:41;99684.25;;;25.47;92.24
54854;BME280;40747;49.480;8.658;2023-07-29T09:45:14;99682.81;;;25.61;93.01
54854;BME280;40747;49.480;8.658;2023-07-29T09:47:46;99683.84;;;26.03;93.90
54854;BME280;40747;49.480;8.658;2023-07-29T09:50:11;99667.78;;;26.01;87.87
54854;BME280;40747;49.480;8.658;2023-07-29T09:52:37;99674.19;;;26.35;91.01
54854;BME280;40747;49.480;8.658;2023-07-29T09:55:02;99678.56;;;26.44;87.09
54854;BME280;40747;49.480;8.658;2023-07-29T09:57:28;99681.31;;;26.60;88.07
54854;BME280;40747;49.480;8.658;2023-07-29T09:59:54;99679.28;;;26.71;92.16
54854;BME280;40747;49.480;8.658;2023-07-29T10:02:20;99677.75;;;26.60;85.78
54854;BME280;40747;49.480;8.658;2023-07-29T10:04:46;99680.91;;;26.30;85.15
54854;BME280;40747;49.480;8.658;2023-07-29T10:07:12;99675.47;;;26.14;84.50
54854;BME280;40747;49.480;8.658;2023-07-29T10:09:39;99672.88;;;26.55;88.48
54854;BME280;40747;49.480;8.658;2023-07-29T10:12:06;99671.31;;;26.36;88.43
54854;BME280;40747;49.480;8.658;2023-07-29T10:14:32;99680.06;;;26.22;82.77
54854;BME280;40747;49.480;8.658;2023-07-29T10:16:57;99678.81;;;25.39;84.93
54854;BME280;40747;49.480;8.658;2023-07-29T10:19:24;99684.63;;;25.34;86.59
54854;BME280;40747;49.480;8.658;2023-07-29T10:21:51;99675.06;;;25.13;85.88
54854;BME280;40747;49.480;8.658;2023-07-29T10:24:19;99673.03;;;24.89;87.01
54854;BME280;40747;49.480;8.658;2023-07-29T10:26:47;99681.03;;;24.99;88.89
54854;BME280;40747;49.480;8.658;2023-07-29T10:29:18;99672.69;;;24.92;88.89
54854;BME280;40747;49.480;8.658;2023-07-29T10:31:45;99674.00;;;25.06;88.55
54854;BME280;40747;49.480;8.658;2023-07-29T10:34:12;99666.78;;;25.59;87.79
54854;BME280;40747;49.480;8.658;2023-07-29T10:36:39;99662.56;;;25.91;84.28
54854;BME280;40747;49.480;8.658;2023-07-29T10:39:07;99667.25;;;26.32;81.05
54854;BME280;40747;49.480;8.658;2023-07-29T10:42:01;99661.16;;;26.22;80.42
54854;BME280;40747;49.480;8.658;2023-07-29T10:49:44;99658.00;;;27.17;76.02
54854;BME280;40747;49.480;8.658;2023-07-29T10:52:13;99655.81;;;27.21;76.25
54854;BME280;40747;49.480;8.658;2023-07-29T10:54:47;99644.16;;;27.20;74.59
54854;BME280;40747;49.480;8.658;2023-07-29T10:57:14;99649.59;;;27.04;74.38
54854;BME280;40747;49.480;8.658;2023-07-29T10:59:54;99646.22;;;26.93;73.43
54854;BME280;40747;49.480;8.658;2023-07-29T11:02:29;99629.28;;;27.24;75.48
54854;BME280;40747;49.480;8.658;2023-07-29T11:04:56;99631.63;;;27.44;73.67
54854;BME280;40747;49.480;8.658;2023-07-29T11:07:22;99632.97;;;27.31;71.87
54854;BME280;40747;49.480;8.658;2023-07-29T11:10:01;99642.13;;;27.06;74.28
54854;BME280;40747;49.480;8.658;2023-07-29T11:15:18;99632.38;;;27.05;71.29
54854;BME280;40747;49.480;8.658;2023-07-29T11:17:57;99638.97;;;26.86;72.85
54854;BME280;40747;49.480;8.658;2023-07-29T11:20:28;99638.44;;;26.65;74.82
54854;BME280;40747;49.480;8.658;2023-07-29T11:22:54;99637.59;;;26.48;74.07
54854;BME280;40747;49.480;8.658;2023-07-29T11:25:21;99629.13;;;26.52;76.59
54854;BME280;40747;49.480;8.658;2023-07-29T11:27:46;99634.50;;;27.34;74.85
54854;BME280;40747;49.480;8.658;2023-07-29T11:30:13;99629.19;;;27.66;72.47
54854;BME280;40747;49.480;8.658;2023-07-29T11:32:41;99633.50;;;27.43;70.99
54854;BME280;40747;49.480;8.658;2023-07-29T11:35:12;99633.13;;;27.46;71.36
54854;BME280;40747;49.480;8.658;2023-07-29T11:37:39;99634.31;;;27.52;71.33
54854;BME280;40747;49.480;8.658;2023-07-29T11:40:04;99632.63;;;27.35;71.08
54854;BME280;40747;49.480;8.658;2023-07-29T11:42:32;99633.22;;;26.89;71.00
54854;BME280;40747;49.480;8.658;2023-07-29T11:44:59;99622.25;;;26.82;73.76
54854;BME280;40747;49.480;8.658;2023-07-29T11:47:24;99625.06;;;27.13;73.75
54854;BME280;40747;49.480;8.658;2023-07-29T11:49:50;99619.75;;;27.53;74.09
54854;BME280;40747;49.480;8.658;2023-07-29T11:52:15;99627.41;;;27.41;68.05
54854;BME280;40747;49.480;8.658;2023-07-29T11:54:44;99633.28;;;27.53;67.99
54854;BME280;40747;49.480;8.658;2023-07-29T11:57:09;99632.00;;;27.16;69.63
54854;BME280;40747;49.480;8.658;2023-07-29T11:59:36;99627.03;;;27.36;68.37
54854;BME280;40747;49.480;8.658;2023-07-29T12:02:10;99622.72;;;27.10;68.91
54854;BME280;40747;49.480;8.658;2023-07-29T12:04:37;99620.53;;;27.14;67.90
54854;BME280;40747;49.480;8.658;2023-07-29T12:07:04;99625.94;;;27.14;67.41
54854;BME280;40747;49.480;8.658;2023-07-29T12:09:29;99613.94;;;26.92;69.89
54854;BME280;40747;49.480;8.658;2023-07-29T12:11:56;99617.69;;;26.91;66.44
54854;BME280;40747;49.480;8.658;2023-07-29T12:14:21;99613.94;;;26.92;66.04
54854;BME280;40747;49.480;8.658;2023-07-29T12:16:50;99621.22;;;26.75;66.31
54854;BME280;40747;49.480;8.658;2023-07-29T12:19:17;99626.09;;;26.63;68.36
54854;BME280;40747;49.480;8.658;2023-07-29T12:21:43;99618.69;;;26.81;65.53
54854;BME280;40747;49.480;8.658;2023-07-29T12:24:09;99621.53;;;26.63;66.20
54854;BME280;40747;49.480;8.658;2023-07-29T12:26:37;99615.28;;;26.71;67.77
54854;BME280;40747;49.480;8.658;2023-07-29T12:29:13;99616.13;;;27.13;66.15
54854;BME280;40747;49.480;8.658;2023-07-29T12:31:39;99617.09;;;27.45;65.88
54854;BME280;40747;49.480;8.658;2023-07-29T12:34:04;99620.50;;;27.30;66.15
54854;BME280;40747;49.480;8.658;2023-07-29T12:36:46;99633.00;;;27.23;67.15
54854;BME280;40747;49.480;8.658;2023-07-29T12:41:46;99638.16;;;27.98;63.82
54854;BME280;40747;49.480;8.658;2023-07-29T12:44:12;99620.81;;;27.84;63.04
54854;BME280;40747;49.480;8.658;2023-07-29T12:46:38;99626.56;;;27.41;63.47
54854;BME280;40747;49.480;8.658;2023-07-29T12:49:03;99629.66;;;26.96;65.85
54854;BME280;40747;49.480;8.658;2023-07-29T12:51:29;99620.72;;;26.88;63.77
54854;BME280;40747;49.480;8.658;2023-07-29T12:53:54;99629.66;;;27.05;61.51
54854;BME280;40747;49.480;8.658;2023-07-29T12:56:20;99628.41;;;27.32;59.41
54854;BME280;40747;49.480;8.658;2023-07-29T12:58:45;99635.28;;;27.59;59.38
54854;BME280;40747;49.480;8.658;2023-07-29T13:01:10;99636.22;;;27.83;56.19
54854;BME280;40747;49.480;8.658;2023-07-29T13:03:41;99629.38;;;27.95;55.26
54854;BME280;40747;49.480;8.658;2023-07-29T13:06:07;99624.25;;;28.09;58.50